Time;durP1;ratioP1;P1;durP2;ratioP2;P2;SDS_P1;SDS_P2;PMS_P1;PMS_P2;Temp;Humidity;BMP_temperature;BMP_pressure;BME280_temperature;BME280_humidity;BME280_pressure;Samples;Min_cycle;Max_cycle;Signal;HPM_P1;HPM_P2
2024/01/10 00:01:26;;;;;;;33.20;14.23;;;-4.30;99.90;;;;;;5017233;28;20032;-65
2024/01/10 00:03:55;;;;;;;25.95;13.18;;;-4.40;99.90;;;;;;5035873;28;20045;-65
2024/01/10 00:06:21;;;;;;;27.13;13.50;;;-4.40;99.90;;;;;;5037358;28;20057;-65
2024/01/10 00:08:47;;;;;;;30.08;13.20;;;-4.40;99.90;;;;;;5012676;28;20026;-65
2024/01/10 00:11:12;;;;;;;24.75;11.48;;;-4.40;99.90;;;;;;5029667;28;20045;-65
2024/01/10 00:13:38;;;;;;;23.77;11.30;;;-4.30;99.90;;;;;;5039942;28;20068;-65
2024/01/10 00:16:04;;;;;;;24.17;12.07;;;-4.30;99.90;;;;;;5034530;28;20084;-65
2024/01/10 00:18:30;;;;;;;25.98;12.77;;;-4.40;99.90;;;;;;5012026;28;20366;-65
2024/01/10 00:20:55;;;;;;;25.45;12.15;;;-4.20;99.90;;;;;;5028015;28;20041;-65
2024/01/10 00:23:22;;;;;;;26.38;13.27;;;-4.30;99.90;;;;;;5041299;28;20056;-65
2024/01/10 00:25:48;;;;;;;21.52;11.55;;;-4.30;99.90;;;;;;5032209;28;20145;-65
2024/01/10 00:28:18;;;;;;;30.02;12.45;;;-4.30;99.90;;;;;;5028844;28;20044;-65
2024/01/10 00:30:45;;;;;;;22.67;11.30;;;-4.30;99.90;;;;;;5029156;28;20053;-65
2024/01/10 00:33:11;;;;;;;25.00;12.55;;;-4.40;99.90;;;;;;5018948;28;20042;-65
2024/01/10 00:35:37;;;;;;;24.98;11.98;;;-4.40;99.90;;;;;;5029646;28;20043;-66
2024/01/10 00:38:02;;;;;;;23.35;11.35;;;-4.50;99.90;;;;;;5039252;28;20857;-65
2024/01/10 00:40:28;;;;;;;21.08;10.88;;;-4.60;99.90;;;;;;5034731;28;20082;-65
2024/01/10 00:42:54;;;;;;;22.08;11.68;;;-4.60;99.90;;;;;;5032288;28;20124;-65
2024/01/10 00:45:20;;;;;;;23.25;11.68;;;-4.70;99.90;;;;;;5041276;28;20083;-66
2024/01/10 00:47:46;;;;;;;23.77;11.02;;;-4.80;99.90;;;;;;5029547;28;20446;-65
2024/01/10 00:50:11;;;;;;;22.95;11.40;;;-4.80;99.90;;;;;;5042764;28;20069;-64
2024/01/10 00:52:37;;;;;;;26.05;11.25;;;-4.80;99.90;;;;;;5046059;28;20045;-66
2024/01/10 00:55:03;;;;;;;26.38;11.35;;;-4.80;99.90;;;;;;5040013;28;20064;-65
2024/01/10 00:57:28;;;;;;;25.85;12.18;;;-4.80;99.90;;;;;;5031009;28;20038;-65
2024/01/10 00:59:54;;;;;;;22.85;10.82;;;-4.80;99.90;;;;;;5037211;28;20127;-65
2024/01/10 01:02:19;;;;;;;24.38;11.30;;;-4.80;99.90;;;;;;5030075;28;20038;-69
2024/01/10 01:04:45;;;;;;;20.80;10.35;;;-4.90;99.90;;;;;;5040805;28;20037;-65
2024/01/10 01:07:11;;;;;;;23.20;10.98;;;-4.90;99.90;;;;;;5018665;28;20065;-65
2024/01/10 01:09:36;;;;;;;23.42;10.40;;;-4.90;99.90;;;;;;5023763;28;20041;-65
2024/01/10 01:12:02;;;;;;;18.52;10.70;;;-5.00;99.90;;;;;;5033430;28;20072;-65
2024/01/10 01:14:28;;;;;;;21.40;10.95;;;-5.00;99.90;;;;;;5036499;28;20127;-66
2024/01/10 01:16:53;;;;;;;19.40;9.93;;;-5.00;99.90;;;;;;5025480;28;20040;-65
2024/01/10 01:19:19;;;;;;;20.30;10.45;;;-5.00;99.90;;;;;;5038079;28;20060;-65
2024/01/10 01:21:44;;;;;;;22.73;10.50;;;-5.10;99.90;;;;;;5036654;28;20037;-65
2024/01/10 01:24:11;;;;;;;20.10;10.77;;;-5.10;99.90;;;;;;5042541;28;20182;-65
2024/01/10 01:26:36;;;;;;;22.52;10.35;;;-5.10;99.90;;;;;;5035357;28;20060;-69
2024/01/10 01:29:02;;;;;;;22.13;10.68;;;-5.20;99.90;;;;;;5043545;28;20045;-65
2024/01/10 01:31:27;;;;;;;29.95;10.27;;;-5.20;99.90;;;;;;5018790;28;20060;-66
2024/01/10 01:33:53;;;;;;;21.63;10.48;;;-5.20;99.90;;;;;;5038882;28;20064;-65
2024/01/10 01:36:20;;;;;;;20.60;10.25;;;-5.30;99.90;;;;;;5040497;28;20618;-65
2024/01/10 01:38:46;;;;;;;19.75;9.48;;;-5.30;99.90;;;;;;5029369;28;20057;-65
2024/01/10 01:41:12;;;;;;;23.58;10.40;;;-5.30;99.90;;;;;;5044833;28;20464;-66
2024/01/10 01:43:38;;;;;;;18.92;10.35;;;-5.30;99.90;;;;;;5021928;28;20049;-65
2024/01/10 01:46:03;;;;;;;20.92;10.98;;;-5.30;99.90;;;;;;5019897;28;20527;-65
2024/01/10 01:48:30;;;;;;;22.45;9.75;;;-5.30;99.90;;;;;;5038058;28;20037;-65
2024/01/10 01:51:02;;;;;;;19.25;9.57;;;-5.30;99.90;;;;;;5033052;28;20041;-64
2024/01/10 01:53:28;;;;;;;28.52;11.27;;;-5.40;99.90;;;;;;5020661;28;20121;-65
2024/01/10 01:55:55;;;;;;;20.52;10.35;;;-5.30;99.90;;;;;;5030326;28;20052;-65
2024/01/10 01:58:22;;;;;;;17.02;8.93;;;-5.40;99.90;;;;;;5030357;28;20121;-64
2024/01/10 02:00:49;;;;;;;25.27;12.18;;;-5.40;99.90;;;;;;5033534;28;20045;-65
2024/01/10 02:03:15;;;;;;;29.58;12.75;;;-5.30;99.90;;;;;;5031278;28;20092;-64
2024/01/10 02:05:41;;;;;;;31.52;13.52;;;-5.30;99.90;;;;;;5036511;28;20037;-64
2024/01/10 02:08:08;;;;;;;27.27;13.93;;;-5.30;99.90;;;;;;5041290;28;20026;-65
2024/01/10 02:10:34;;;;;;;31.52;14.35;;;-5.30;99.90;;;;;;5042926;28;20080;-65
2024/01/10 02:13:00;;;;;;;32.17;13.68;;;-5.40;99.90;;;;;;5031013;28;20037;-66
2024/01/10 02:15:26;;;;;;;27.55;13.95;;;-5.30;99.90;;;;;;5031071;28;20535;-65
2024/01/10 02:17:52;;;;;;;31.08;15.30;;;-5.30;99.90;;;;;;5039703;28;20049;-65
2024/01/10 02:20:18;;;;;;;35.83;16.42;;;-5.40;99.90;;;;;;5034454;28;20084;-64
2024/01/10 02:22:44;;;;;;;30.98;14.45;;;-5.50;99.90;;;;;;5014825;28;20216;-65
2024/01/10 02:25:10;;;;;;;32.17;14.23;;;-5.40;99.90;;;;;;5021074;28;20073;-65
2024/01/10 02:27:37;;;;;;;34.70;15.63;;;-5.40;99.90;;;;;;5034471;28;20037;-65
2024/01/10 02:30:04;;;;;;;37.47;15.95;;;-5.40;99.90;;;;;;5023641;28;20045;-64
2024/01/10 02:32:30;;;;;;;31.63;14.88;;;-5.40;99.90;;;;;;5036612;28;20052;-65
2024/01/10 02:34:56;;;;;;;35.78;16.02;;;-5.40;99.90;;;;;;5030108;28;20037;-65
2024/01/10 02:37:21;;;;;;;32.33;15.30;;;-5.50;99.90;;;;;;5035665;28;20092;-65
2024/01/10 02:39:47;;;;;;;33.30;14.50;;;-5.50;99.90;;;;;;5034979;28;20052;-65
2024/01/10 02:42:12;;;;;;;33.20;14.32;;;-5.50;99.90;;;;;;5036733;28;20038;-65
2024/01/10 02:44:38;;;;;;;33.80;15.88;;;-5.50;99.90;;;;;;5037171;28;20052;-65
2024/01/10 02:47:05;;;;;;;36.80;16.15;;;-5.50;99.90;;;;;;5035411;28;20132;-65
2024/01/10 02:49:30;;;;;;;36.00;16.50;;;-5.60;99.90;;;;;;5029772;28;20460;-65
2024/01/10 02:51:56;;;;;;;35.42;16.02;;;-5.60;99.90;;;;;;5032368;28;20064;-64
2024/01/10 02:54:21;;;;;;;32.75;16.17;;;-5.60;99.90;;;;;;5038876;28;20082;-66
2024/01/10 02:56:47;;;;;;;35.25;16.88;;;-5.60;99.90;;;;;;5031776;28;20045;-64
2024/01/10 02:59:12;;;;;;;35.10;17.25;;;-5.60;99.90;;;;;;5031855;28;20044;-65
2024/01/10 03:01:38;;;;;;;34.40;15.95;;;-5.60;99.90;;;;;;5043987;28;20045;-65
2024/01/10 03:04:04;;;;;;;36.78;16.58;;;-5.60;99.90;;;;;;5034432;28;20038;-65
2024/01/10 03:06:29;;;;;;;34.50;16.65;;;-5.60;99.90;;;;;;5045923;28;20037;-65
2024/01/10 03:08:55;;;;;;;35.38;14.90;;;-5.60;99.90;;;;;;5037226;28;20037;-64
2024/01/10 03:11:21;;;;;;;35.55;15.77;;;-5.60;99.90;;;;;;5018112;28;20055;-65
2024/01/10 03:13:47;;;;;;;33.65;16.88;;;-5.40;99.90;;;;;;5027383;28;20075;-65
2024/01/10 03:16:13;;;;;;;37.47;15.90;;;-5.50;99.90;;;;;;5027613;28;20561;-65
2024/01/10 03:18:39;;;;;;;36.13;16.10;;;-5.40;99.90;;;;;;5043751;28;20042;-65
2024/01/10 03:21:05;;;;;;;40.65;15.98;;;-5.40;99.90;;;;;;5041291;28;20043;-65
2024/01/10 03:23:31;;;;;;;32.78;15.32;;;-5.40;99.90;;;;;;5032916;28;20118;-64
2024/01/10 03:25:57;;;;;;;30.60;14.95;;;-5.40;99.90;;;;;;5037911;28;20441;-65
2024/01/10 03:28:23;;;;;;;32.75;15.88;;;-5.40;99.90;;;;;;5030581;28;20036;-65
2024/01/10 03:30:49;;;;;;;40.08;16.33;;;-5.50;99.90;;;;;;5031363;28;20378;-64
2024/01/10 03:33:15;;;;;;;31.95;15.43;;;-5.50;99.90;;;;;;5023157;28;20036;-64
2024/01/10 03:35:41;;;;;;;28.83;14.98;;;-5.50;99.90;;;;;;5038972;28;20037;-65
2024/01/10 03:38:07;;;;;;;32.42;14.98;;;-5.60;99.90;;;;;;5027795;28;20069;-64
2024/01/10 03:40:34;;;;;;;36.97;15.98;;;-5.50;99.90;;;;;;5040837;28;20128;-65
2024/01/10 03:42:59;;;;;;;34.38;15.48;;;-5.50;99.90;;;;;;5035832;28;20489;-65
2024/01/10 03:45:25;;;;;;;30.27;14.88;;;-5.50;99.90;;;;;;5034649;28;20091;-64
2024/01/10 03:47:51;;;;;;;34.28;14.70;;;-5.50;99.90;;;;;;5028921;28;20068;-65
2024/01/10 03:50:21;;;;;;;31.05;15.65;;;-5.50;99.90;;;;;;5037693;28;20116;-64
2024/01/10 03:52:47;;;;;;;31.30;15.23;;;-5.50;99.90;;;;;;5033366;28;20067;-64
2024/01/10 03:55:13;;;;;;;31.55;14.38;;;-5.40;99.90;;;;;;5021190;28;20367;-64
2024/01/10 03:57:42;;;;;;;31.52;14.43;;;-5.40;99.90;;;;;;5031728;28;20099;-65
2024/01/10 04:00:09;;;;;;;34.10;15.63;;;-5.30;99.90;;;;;;5033704;28;20041;-65
2024/01/10 04:02:38;;;;;;;31.80;14.82;;;-5.30;99.90;;;;;;5042070;28;20044;-65
2024/01/10 04:05:07;;;;;;;34.17;15.40;;;-5.40;99.90;;;;;;5043689;28;20043;-65
2024/01/10 04:07:33;;;;;;;38.72;15.68;;;-5.30;99.90;;;;;;5028049;28;20140;-65
2024/01/10 04:09:58;;;;;;;34.92;15.25;;;-5.30;99.90;;;;;;5028523;28;20160;-64
2024/01/10 04:12:24;;;;;;;34.72;16.02;;;-5.30;99.90;;;;;;5026721;28;20045;-65
2024/01/10 04:14:50;;;;;;;32.47;13.88;;;-5.20;99.90;;;;;;5034203;28;20091;-65
2024/01/10 04:17:15;;;;;;;30.45;14.95;;;-5.30;99.90;;;;;;5033211;28;20116;-65
2024/01/10 04:19:41;;;;;;;33.05;16.75;;;-5.30;99.90;;;;;;5045268;28;20037;-65
2024/01/10 04:22:07;;;;;;;33.08;16.23;;;-5.30;99.90;;;;;;5018246;28;20049;-64
2024/01/10 04:24:32;;;;;;;31.70;14.70;;;-5.30;99.90;;;;;;5029899;28;20444;-65
2024/01/10 04:26:58;;;;;;;34.47;14.63;;;-5.40;99.90;;;;;;5034311;28;20469;-66
2024/01/10 04:29:23;;;;;;;33.60;15.15;;;-5.30;99.90;;;;;;5039468;28;20037;-66
2024/01/10 04:31:49;;;;;;;39.58;16.75;;;-5.40;99.90;;;;;;5032780;28;20056;-65
2024/01/10 04:34:15;;;;;;;37.65;16.77;;;-5.30;99.90;;;;;;5042607;28;20033;-65
2024/01/10 04:36:41;;;;;;;34.22;14.93;;;-5.40;99.90;;;;;;5039519;28;20098;-65
2024/01/10 04:39:06;;;;;;;34.35;15.27;;;-5.40;99.90;;;;;;5038606;28;20041;-65
2024/01/10 04:41:32;;;;;;;32.35;16.00;;;-5.40;99.90;;;;;;5035543;28;20056;-65
2024/01/10 04:43:57;;;;;;;32.13;15.32;;;-5.40;99.90;;;;;;5034691;28;20063;-64
2024/01/10 04:46:23;;;;;;;33.15;16.10;;;-5.50;99.90;;;;;;5013274;28;20052;-65
2024/01/10 04:48:49;;;;;;;37.78;16.98;;;-5.50;99.90;;;;;;5042843;28;20029;-65
2024/01/10 04:51:14;;;;;;;31.38;15.15;;;-5.50;99.90;;;;;;5045433;28;20029;-65
2024/01/10 04:53:40;;;;;;;30.70;14.98;;;-5.50;99.90;;;;;;5032346;28;20129;-65
2024/01/10 04:56:06;;;;;;;36.50;16.95;;;-5.60;99.90;;;;;;5035724;28;20460;-65
2024/01/10 04:58:32;;;;;;;32.90;15.80;;;-5.50;99.90;;;;;;5014675;28;20071;-65
2024/01/10 05:00:58;;;;;;;33.10;15.45;;;-5.60;99.90;;;;;;5019917;28;20401;-65
2024/01/10 05:03:24;;;;;;;36.63;16.30;;;-5.60;99.90;;;;;;5035838;28;20144;-65
2024/01/10 05:05:50;;;;;;;29.63;14.57;;;-5.60;99.90;;;;;;5031782;28;20049;-65
2024/01/10 05:08:15;;;;;;;36.35;17.73;;;-5.60;99.90;;;;;;5032222;28;20084;-64
2024/01/10 05:10:41;;;;;;;31.95;15.13;;;-5.60;99.90;;;;;;5039740;28;20078;-65
2024/01/10 05:13:06;;;;;;;33.00;14.98;;;-5.60;99.90;;;;;;5034512;28;20124;-65
2024/01/10 05:15:32;;;;;;;31.92;14.70;;;-5.70;99.90;;;;;;5040124;28;20454;-66
2024/01/10 05:17:58;;;;;;;33.78;15.45;;;-5.70;99.90;;;;;;5019594;28;20127;-65
2024/01/10 05:20:23;;;;;;;36.45;14.57;;;-5.70;99.90;;;;;;5030395;28;20041;-65
2024/01/10 05:22:49;;;;;;;33.00;14.82;;;-5.70;99.90;;;;;;5039557;28;20584;-65
2024/01/10 05:25:18;;;;;;;33.83;15.57;;;-5.70;99.90;;;;;;5043869;28;20029;-65
2024/01/10 05:27:43;;;;;;;32.90;16.10;;;-5.70;99.90;;;;;;5017589;28;20041;-65
2024/01/10 05:30:12;;;;;;;30.52;15.20;;;-5.80;99.90;;;;;;5046163;28;20043;-68
2024/01/10 05:32:38;;;;;;;32.88;16.60;;;-5.70;99.90;;;;;;5020819;28;20041;-66
2024/01/10 05:35:05;;;;;;;33.90;14.65;;;-5.70;99.90;;;;;;5025707;28;20036;-64
2024/01/10 05:37:30;;;;;;;32.55;14.35;;;-5.60;99.90;;;;;;5034846;28;20053;-65
2024/01/10 05:39:56;;;;;;;31.65;15.43;;;-5.50;99.90;;;;;;5018290;28;20092;-64
2024/01/10 05:42:21;;;;;;;31.33;16.00;;;-5.50;99.90;;;;;;5032324;28;20444;-64
2024/01/10 05:44:47;;;;;;;44.45;17.60;;;-5.50;99.90;;;;;;5035396;28;20132;-65
2024/01/10 05:47:13;;;;;;;39.17;16.50;;;-5.40;99.90;;;;;;5031372;28;20049;-65
2024/01/10 05:49:39;;;;;;;29.48;12.75;;;-5.40;99.90;;;;;;5037329;28;20056;-64
2024/01/10 05:52:04;;;;;;;34.88;17.30;;;-5.30;99.90;;;;;;5033195;28;20033;-66
2024/01/10 05:54:30;;;;;;;36.17;17.58;;;-5.40;99.90;;;;;;5037547;28;20120;-65
2024/01/10 05:56:56;;;;;;;35.40;17.58;;;-5.40;99.90;;;;;;5030000;28;20118;-65
2024/01/10 05:59:21;;;;;;;32.90;15.73;;;-5.30;99.90;;;;;;5036943;28;20094;-65
2024/01/10 06:01:47;;;;;;;34.67;15.75;;;-5.40;99.90;;;;;;5050119;28;20136;-65
2024/01/10 06:04:12;;;;;;;35.92;16.20;;;-5.30;99.90;;;;;;5032184;28;20040;-65
2024/01/10 06:06:38;;;;;;;30.92;15.85;;;-5.20;99.90;;;;;;5017530;28;20141;-65
2024/01/10 06:09:04;;;;;;;36.65;16.90;;;-5.30;99.90;;;;;;5035968;28;20131;-65
2024/01/10 06:11:30;;;;;;;34.00;15.73;;;-5.20;99.90;;;;;;5048695;28;20037;-65
2024/01/10 06:13:57;;;;;;;37.15;15.43;;;-5.30;99.90;;;;;;5035210;28;20052;-65
2024/01/10 06:16:22;;;;;;;33.20;15.43;;;-5.30;99.90;;;;;;5013738;28;20041;-65
2024/01/10 06:18:48;;;;;;;34.63;16.17;;;-5.30;99.90;;;;;;5044239;28;20045;-65
2024/01/10 06:21:14;;;;;;;34.30;16.77;;;-5.30;99.90;;;;;;5040355;28;20039;-66
2024/01/10 06:23:40;;;;;;;29.13;16.35;;;-5.30;99.90;;;;;;5037977;28;21933;-64
2024/01/10 06:26:05;;;;;;;36.17;15.80;;;-5.30;99.90;;;;;;5039604;28;20093;-65
2024/01/10 06:28:32;;;;;;;31.90;15.73;;;-5.30;99.90;;;;;;5050910;28;20076;-65
2024/01/10 06:30:57;;;;;;;31.10;16.17;;;-5.40;99.90;;;;;;5044359;28;20041;-65
2024/01/10 06:33:23;;;;;;;35.10;16.20;;;-5.40;99.90;;;;;;5034439;28;20037;-64
2024/01/10 06:35:49;;;;;;;31.15;16.10;;;-5.40;99.90;;;;;;5038783;28;20920;-65
2024/01/10 06:38:16;;;;;;;31.90;14.95;;;-5.50;99.90;;;;;;5032687;28;20067;-65
2024/01/10 06:40:44;;;;;;;29.20;15.93;;;-5.50;99.90;;;;;;5030263;28;20112;-65
2024/01/10 06:43:10;;;;;;;28.02;14.77;;;-5.60;99.90;;;;;;5032216;28;20087;-66
2024/01/10 06:45:35;;;;;;;34.33;15.77;;;-5.60;99.90;;;;;;5034644;28;20069;-65
2024/01/10 06:48:01;;;;;;;30.77;15.73;;;-5.70;99.90;;;;;;5030441;28;20092;-65
2024/01/10 06:50:26;;;;;;;33.78;16.27;;;-5.80;99.90;;;;;;5035468;28;20366;-64
2024/01/10 06:52:52;;;;;;;32.55;15.40;;;-5.80;99.90;;;;;;5034332;28;20137;-66
2024/01/10 06:55:18;;;;;;;32.20;15.95;;;-5.80;99.90;;;;;;5037551;28;20045;-64
2024/01/10 06:57:44;;;;;;;32.60;16.05;;;-5.80;99.90;;;;;;5031930;28;20040;-64
2024/01/10 07:00:10;;;;;;;35.40;15.77;;;-5.80;99.90;;;;;;5030569;28;20091;-65
2024/01/10 07:02:39;;;;;;;31.20;13.55;;;-5.80;99.90;;;;;;5028436;28;20088;-64
2024/01/10 07:05:11;;;;;;;37.45;16.05;;;-5.80;99.90;;;;;;5026719;28;20033;-65
2024/01/10 07:07:37;;;;;;;33.20;15.90;;;-5.80;99.90;;;;;;5042000;28;20553;-65
2024/01/10 07:10:06;;;;;;;35.25;15.95;;;-5.90;99.90;;;;;;5040431;28;20045;-65
2024/01/10 07:12:33;;;;;;;33.03;17.43;;;-5.80;99.90;;;;;;5030767;28;20452;-65
2024/01/10 07:14:59;;;;;;;31.70;15.90;;;-5.90;99.90;;;;;;5035174;28;20045;-65
2024/01/10 07:17:25;;;;;;;31.85;15.63;;;-5.90;99.90;;;;;;5043276;28;20048;-64
2024/01/10 07:19:50;;;;;;;32.17;15.48;;;-5.90;99.90;;;;;;5013107;28;20729;-65
2024/01/10 07:22:17;;;;;;;34.60;17.52;;;-5.90;99.90;;;;;;5037678;28;20436;-64
2024/01/10 07:24:43;;;;;;;34.70;16.45;;;-5.90;99.90;;;;;;5031314;28;20094;-64
2024/01/10 07:27:09;;;;;;;32.80;16.85;;;-6.00;99.90;;;;;;5024368;28;20064;-65
2024/01/10 07:29:35;;;;;;;36.83;17.90;;;-5.90;99.90;;;;;;5024773;28;20080;-65
2024/01/10 07:32:01;;;;;;;38.05;18.40;;;-5.80;99.90;;;;;;5018651;28;20110;-65
2024/01/10 07:34:26;;;;;;;37.03;15.93;;;-5.70;99.90;;;;;;5028927;28;20158;-65
2024/01/10 07:36:54;;;;;;;31.70;16.08;;;-5.70;99.90;;;;;;5028381;28;20040;-65
2024/01/10 07:39:19;;;;;;;32.63;16.52;;;-5.60;99.90;;;;;;5035197;28;20037;-65
2024/01/10 07:41:46;;;;;;;36.50;16.95;;;-5.60;99.90;;;;;;5015874;28;20493;-65
2024/01/10 07:44:12;;;;;;;34.97;16.40;;;-5.60;99.90;;;;;;5029449;28;20049;-65
2024/01/10 07:46:38;;;;;;;35.10;17.63;;;-5.50;99.90;;;;;;5042585;28;20037;-64
2024/01/10 07:49:06;;;;;;;33.63;16.25;;;-5.50;99.90;;;;;;5032522;28;20026;-64
2024/01/10 07:51:32;;;;;;;36.50;16.77;;;-5.40;99.90;;;;;;5040833;28;20541;-65
2024/01/10 07:53:59;;;;;;;34.90;17.38;;;-5.50;99.90;;;;;;5033209;28;20080;-65
2024/01/10 07:56:25;;;;;;;30.45;16.27;;;-5.50;99.90;;;;;;5037553;28;20056;-64
2024/01/10 07:58:51;;;;;;;34.92;16.25;;;-5.50;99.90;;;;;;5041462;28;20504;-64
2024/01/10 08:01:18;;;;;;;32.20;14.77;;;-5.50;99.90;;;;;;5029357;28;20067;-63
2024/01/10 08:03:43;;;;;;;24.83;11.13;;;-5.50;99.90;;;;;;5031855;28;20045;-65
2024/01/10 08:06:12;;;;;;;38.10;16.25;;;-5.40;99.90;;;;;;5027930;28;20049;-64
2024/01/10 08:08:37;;;;;;;36.00;17.27;;;-5.40;99.90;;;;;;5028927;28;20030;-64
2024/01/10 08:11:03;;;;;;;32.95;16.38;;;-5.30;99.90;;;;;;5015248;28;20098;-64
2024/01/10 08:13:29;;;;;;;34.10;14.43;;;-5.30;99.90;;;;;;5037289;28;20033;-64
2024/01/10 08:15:54;;;;;;;32.42;15.45;;;-5.30;99.90;;;;;;5048726;28;20053;-65
2024/01/10 08:18:20;;;;;;;34.17;14.98;;;-5.20;99.90;;;;;;5029406;28;20075;-64
2024/01/10 08:20:46;;;;;;;32.83;15.15;;;-5.20;99.90;;;;;;5026175;28;20424;-64
2024/01/10 08:23:12;;;;;;;31.70;16.35;;;-5.20;99.90;;;;;;5044709;28;20119;-64
2024/01/10 08:25:38;;;;;;;32.35;14.52;;;-5.10;99.90;;;;;;5048601;28;20112;-65
2024/01/10 08:28:04;;;;;;;33.97;16.10;;;-5.10;99.90;;;;;;5047778;28;20036;-65
2024/01/10 08:30:29;;;;;;;33.83;14.88;;;-5.10;99.90;;;;;;5045741;28;20060;-65
2024/01/10 08:32:55;;;;;;;31.73;14.15;;;-5.10;99.90;;;;;;5039103;28;20045;-65
2024/01/10 08:35:20;;;;;;;36.13;16.65;;;-5.00;99.90;;;;;;5013459;28;20047;-65
2024/01/10 08:37:46;;;;;;;33.88;14.75;;;-4.90;99.90;;;;;;5036382;28;20492;-64
2024/01/10 08:40:14;;;;;;;37.05;15.27;;;-4.90;99.90;;;;;;5039562;28;20033;-64
2024/01/10 08:42:43;;;;;;;29.73;12.50;;;-4.80;99.90;;;;;;5037286;28;20478;-66
2024/01/10 08:45:11;;;;;;;31.45;14.18;;;-4.70;99.90;;;;;;5028559;28;20045;-64
2024/01/10 08:47:37;;;;;;;30.63;13.60;;;-4.60;99.90;;;;;;5012585;28;20033;-65
2024/01/10 08:50:04;;;;;;;28.13;13.60;;;-4.60;99.90;;;;;;5021830;28;20037;-66
2024/01/10 08:52:31;;;;;;;34.15;13.82;;;-4.50;99.90;;;;;;5049261;28;20047;-65
2024/01/10 08:54:57;;;;;;;31.13;13.07;;;-4.50;99.90;;;;;;5041486;28;20057;-65
2024/01/10 08:57:22;;;;;;;29.48;13.55;;;-4.50;99.90;;;;;;5040382;28;20131;-64
2024/01/10 08:59:48;;;;;;;33.72;13.52;;;-4.50;99.90;;;;;;5030057;28;20045;-66
2024/01/10 09:02:14;;;;;;;31.83;13.55;;;-4.40;99.90;;;;;;5032521;28;20071;-65
2024/01/10 09:04:40;;;;;;;36.67;13.48;;;-4.40;99.90;;;;;;5046741;28;20769;-66
2024/01/10 09:07:07;;;;;;;31.65;14.27;;;-4.30;99.90;;;;;;5036564;28;20049;-66
2024/01/10 09:09:32;;;;;;;41.00;15.05;;;-4.30;99.90;;;;;;5044208;28;20029;-65
2024/01/10 09:11:58;;;;;;;29.98;12.90;;;-4.20;99.90;;;;;;5028074;28;20091;-66
2024/01/10 09:14:23;;;;;;;35.95;14.30;;;-4.10;99.90;;;;;;5045115;28;20509;-66
2024/01/10 09:16:49;;;;;;;39.30;14.30;;;-4.10;99.90;;;;;;5030423;28;20048;-65
2024/01/10 09:19:15;;;;;;;38.70;14.07;;;-4.10;99.90;;;;;;5038141;28;20037;-66
2024/01/10 09:21:40;;;;;;;33.75;13.60;;;-4.00;99.90;;;;;;5015392;28;20179;-66
2024/01/10 09:24:08;;;;;;;36.35;13.45;;;-3.90;99.90;;;;;;5039220;28;20044;-65
2024/01/10 09:26:34;;;;;;;33.40;13.00;;;-3.80;99.90;;;;;;5046266;28;20753;-65
2024/01/10 09:29:00;;;;;;;31.90;12.88;;;-3.80;99.90;;;;;;5033396;28;20029;-65
2024/01/10 09:31:25;;;;;;;37.13;13.65;;;-3.80;99.90;;;;;;5026628;28;20068;-67
2024/01/10 09:33:51;;;;;;;30.80;12.55;;;-3.70;99.90;;;;;;5036397;28;20048;-65
2024/01/10 09:36:17;;;;;;;26.90;11.82;;;-3.70;99.90;;;;;;5041814;28;20115;-65
2024/01/10 09:38:42;;;;;;;27.10;11.60;;;-3.50;99.90;;;;;;5040924;28;20033;-66
2024/01/10 09:41:10;;;;;;;29.00;11.70;;;-3.50;99.90;;;;;;5039820;28;20134;-66
2024/01/10 09:43:36;;;;;;;25.95;11.07;;;-3.40;99.90;;;;;;5044069;28;20048;-66
2024/01/10 09:46:02;;;;;;;27.40;11.10;;;-3.30;99.90;;;;;;5042984;28;20045;-65
2024/01/10 09:48:29;;;;;;;25.45;11.02;;;-3.30;99.90;;;;;;5033993;28;20045;-65
2024/01/10 09:50:56;;;;;;;38.15;11.35;;;-3.20;99.90;;;;;;5040618;28;20044;-67
2024/01/10 09:53:35;;;;;;;33.08;12.00;;;-3.10;99.90;;;;;;5035923;28;20050;-66
2024/01/10 09:56:04;;;;;;;23.60;10.70;;;-3.10;99.90;;;;;;5041195;28;20552;-66
2024/01/10 09:58:31;;;;;;;21.77;10.35;;;-3.10;99.90;;;;;;5028781;28;20029;-67
2024/01/10 10:00:56;;;;;;;29.15;11.65;;;-3.10;99.90;;;;;;5028560;28;20044;-67
2024/01/10 10:03:22;;;;;;;27.75;10.93;;;-3.00;99.90;;;;;;5031456;28;20277;-66
2024/01/10 10:05:47;;;;;;;29.15;11.50;;;-2.90;99.90;;;;;;5047314;28;20171;-66
2024/01/10 10:08:22;;;;;;;30.90;9.90;;;-2.90;99.90;;;;;;5039431;28;20037;-66
2024/01/10 10:10:51;;;;;;;28.92;9.63;;;-2.80;99.90;;;;;;5028152;28;20485;-67
2024/01/10 10:13:29;;;;;;;29.20;11.40;;;-2.70;99.90;;;;;;5027404;28;20029;-67
2024/01/10 10:16:02;;;;;;;28.98;10.60;;;-2.80;99.90;;;;;;5035845;28;20045;-66
2024/01/10 10:18:29;;;;;;;29.55;10.02;;;-2.90;99.90;;;;;;5029472;28;20405;-66
2024/01/10 10:21:11;;;;;;;26.00;11.18;;;-2.80;99.90;;;;;;5032782;28;20423;-67
2024/01/10 10:23:42;;;;;;;27.08;9.82;;;-2.70;99.90;;;;;;5015697;28;20120;-66
2024/01/10 10:26:21;;;;;;;28.58;11.15;;;-2.70;99.90;;;;;;5028620;28;20037;-67
2024/01/10 10:28:51;;;;;;;27.80;10.68;;;-2.60;99.90;;;;;;5027919;28;20385;-67
2024/01/10 10:31:18;;;;;;;25.25;11.30;;;-2.60;99.90;;;;;;5032686;28;20049;-66
2024/01/10 10:33:50;;;;;;;29.17;10.65;;;-2.50;99.90;;;;;;5030647;28;20118;-67
2024/01/10 10:36:16;;;;;;;28.23;9.65;;;-2.40;99.90;;;;;;5034576;28;20041;-66
2024/01/10 10:38:42;;;;;;;19.80;9.18;;;-2.40;99.90;;;;;;5034222;28;20033;-67
2024/01/10 10:41:10;;;;;;;26.08;10.30;;;-2.30;99.90;;;;;;5032069;28;20106;-66
2024/01/10 10:43:37;;;;;;;25.58;10.20;;;-2.30;99.90;;;;;;5027630;28;20478;-67
2024/01/10 10:46:06;;;;;;;26.50;10.18;;;-2.30;99.90;;;;;;5027180;28;20128;-66
2024/01/10 10:48:34;;;;;;;22.13;9.20;;;-2.30;99.90;;;;;;5037776;28;20124;-66
2024/01/10 10:51:10;;;;;;;26.83;9.40;;;-2.20;99.90;;;;;;5031329;28;20076;-66
2024/01/10 10:53:38;;;;;;;21.45;9.02;;;-2.20;99.90;;;;;;5031366;28;20049;-66
2024/01/10 10:56:05;;;;;;;26.52;8.70;;;-2.20;99.90;;;;;;5015355;28;20041;-67
2024/01/10 10:58:36;;;;;;;20.13;8.85;;;-2.20;99.90;;;;;;5030906;28;20471;-66
2024/01/10 11:01:09;;;;;;;22.20;9.18;;;-2.20;99.90;;;;;;5011475;28;20037;-66
2024/01/10 11:03:37;;;;;;;30.33;10.93;;;-2.10;99.90;;;;;;5028365;28;20049;-66
2024/01/10 11:06:04;;;;;;;21.30;8.32;;;-2.10;99.90;;;;;;5039932;28;20033;-66
2024/01/10 11:08:44;;;;;;;25.83;9.40;;;-1.90;99.90;;;;;;5031830;28;20072;-66
2024/01/10 11:11:56;;;;;;;21.25;9.00;;;-1.90;99.90;;;;;;5034149;28;20067;-66
2024/01/10 11:14:39;;;;;;;24.02;9.05;;;-1.80;99.90;;;;;;5032078;28;20122;-66
2024/01/10 11:17:24;;;;;;;26.40;10.27;;;-1.90;99.90;;;;;;5035224;28;20120;-65
2024/01/10 11:20:18;;;;;;;22.88;8.48;;;-1.90;99.90;;;;;;5030956;28;20053;-66
2024/01/10 11:23:14;;;;;;;23.58;9.27;;;-1.90;99.90;;;;;;5028873;28;20480;-66
2024/01/10 11:25:41;;;;;;;20.30;8.23;;;-1.80;99.90;;;;;;5029445;28;20041;-66
2024/01/10 11:28:06;;;;;;;21.48;8.60;;;-1.80;99.90;;;;;;5029033;28;20116;-66
2024/01/10 11:30:51;;;;;;;20.63;8.88;;;-1.70;99.90;;;;;;5012903;28;20128;-67
2024/01/10 11:33:23;;;;;;;23.42;9.93;;;-1.70;99.90;;;;;;5035172;28;20068;-66
2024/01/10 11:36:24;;;;;;;21.58;8.85;;;-1.70;99.90;;;;;;5039741;28;20037;-66
2024/01/10 11:39:02;;;;;;;24.23;8.80;;;-1.70;99.90;;;;;;5034229;28;20409;-67
2024/01/10 11:41:28;;;;;;;21.67;8.40;;;-1.60;99.90;;;;;;5036244;28;20041;-66
2024/01/10 11:44:17;;;;;;;22.77;8.35;;;-1.60;99.90;;;;;;5014681;28;20444;-66
2024/01/10 11:46:48;;;;;;;22.17;8.65;;;-1.50;99.90;;;;;;5028456;28;20046;-65
2024/01/10 11:49:15;;;;;;;21.45;8.80;;;-1.30;99.90;;;;;;5044503;28;20032;-66
2024/01/10 11:51:49;;;;;;;20.10;9.55;;;-1.30;99.90;;;;;;5012944;28;20120;-67
2024/01/10 11:54:34;;;;;;;23.27;8.50;;;-1.30;99.90;;;;;;5040223;28;20398;-66
2024/01/10 11:57:01;;;;;;;19.90;8.38;;;-1.20;99.90;;;;;;5036873;28;20045;-66
2024/01/10 11:59:27;;;;;;;18.85;8.02;;;-1.20;99.90;;;;;;5036693;28;20049;-67
2024/01/10 12:01:54;;;;;;;20.38;8.32;;;-1.20;99.90;;;;;;5034558;28;20061;-66
2024/01/10 12:04:21;;;;;;;20.42;8.23;;;-1.20;99.90;;;;;;5043139;28;20052;-66
2024/01/10 12:06:47;;;;;;;18.13;7.57;;;-1.10;99.90;;;;;;5029313;28;20072;-66
2024/01/10 12:09:14;;;;;;;21.83;9.25;;;-1.20;99.90;;;;;;5034248;28;20056;-66
2024/01/10 12:11:40;;;;;;;24.23;8.85;;;-1.20;99.90;;;;;;5038121;28;20032;-66
2024/01/10 12:14:06;;;;;;;24.52;9.00;;;-1.10;99.90;;;;;;5042837;28;20400;-66
2024/01/10 12:16:32;;;;;;;20.65;7.95;;;-1.10;99.90;;;;;;5047494;28;20472;-67
2024/01/10 12:18:58;;;;;;;19.70;9.30;;;-1.10;99.90;;;;;;5040787;28;20051;-67
2024/01/10 12:21:23;;;;;;;21.50;8.20;;;-1.00;99.90;;;;;;5029710;28;20466;-66
2024/01/10 12:23:51;;;;;;;21.92;8.52;;;-0.90;99.90;;;;;;5009944;28;20041;-67
2024/01/10 12:26:18;;;;;;;23.33;7.78;;;-0.80;99.90;;;;;;5028882;28;20565;-67
2024/01/10 12:28:57;;;;;;;18.67;8.05;;;-0.70;99.90;;;;;;5010816;28;20120;-67